Time;durP1;ratioP1;P1;durP2;ratioP2;P2;SDS_P1;SDS_P2;PMS_P1;PMS_P2;Temp;Humidity;BMP_temperature;BMP_pressure;BME280_temperature;BME280_humidity;BME280_pressure;Samples;Min_cycle;Max_cycle;Signal;HPM_P1;HPM_P2
2023/03/28 00:00:55;;;;;;;14.63;3.50;;;20.60;63.80;;;;;;5051425;28;20029;-79
2023/03/28 00:03:21;;;;;;;24.92;3.63;;;20.60;63.70;;;;;;5051196;28;20047;-76
2023/03/28 00:05:48;;;;;;;16.80;3.97;;;20.70;63.90;;;;;;5029196;28;20100;-78
2023/03/28 00:08:15;;;;;;;9.73;3.83;;;20.70;63.40;;;;;;5033168;28;20502;-78
2023/03/28 00:10:42;;;;;;;7.45;3.30;;;20.70;63.70;;;;;;5051331;28;20052;-79
2023/03/28 00:13:10;;;;;;;18.98;3.42;;;20.70;62.90;;;;;;5050037;28;20032;-83
2023/03/28 00:15:40;;;;;;;20.00;3.92;;;20.70;63.60;;;;;;5033239;28;20032;-81
2023/03/28 00:18:10;;;;;;;11.77;3.00;;;20.70;62.60;;;;;;5050934;28;20486;-78
2023/03/28 00:20:42;;;;;;;7.15;2.25;;;20.50;56.20;;;;;;5033414;28;20025;-80
2023/03/28 00:23:10;;;;;;;6.15;2.13;;;19.70;48.80;;;;;;5051116;28;20429;-83
2023/03/28 00:25:39;;;;;;;19.02;2.25;;;19.70;51.60;;;;;;5051236;28;20322;-81
2023/03/28 00:28:05;;;;;;;11.50;2.92;;;19.80;52.30;;;;;;5049425;28;20039;-81
2023/03/28 00:30:31;;;;;;;16.33;2.03;;;19.90;53.00;;;;;;5050961;28;20029;-81
2023/03/28 00:32:57;;;;;;;8.57;2.00;;;20.00;53.50;;;;;;5051065;28;20032;-82
2023/03/28 00:35:23;;;;;;;11.32;2.50;;;20.10;54.40;;;;;;5017063;28;20033;-82
2023/03/28 00:37:56;;;;;;;9.10;2.20;;;20.20;55.00;;;;;;5032720;28;20071;-81
2023/03/28 00:40:26;;;;;;;8.98;2.00;;;20.20;55.30;;;;;;5016904;28;20086;-82
2023/03/28 00:42:52;;;;;;;13.73;2.35;;;20.20;55.80;;;;;;5032925;28;20395;-81
2023/03/28 00:45:20;;;;;;;14.63;2.65;;;20.20;55.80;;;;;;5033130;28;20094;-82
2023/03/28 00:48:00;;;;;;;7.68;2.85;;;20.30;56.30;;;;;;5049399;28;20083;-81
2023/03/28 00:50:39;;;;;;;8.77;2.40;;;20.30;56.40;;;;;;5052032;28;20478;-81
2023/03/28 00:53:25;;;;;;;14.53;3.20;;;20.40;56.70;;;;;;5036874;28;20078;-81
2023/03/28 00:56:06;;;;;;;11.90;3.65;;;20.40;56.90;;;;;;5020410;28;20051;-81
2023/03/28 00:58:37;;;;;;;15.05;3.50;;;20.40;57.10;;;;;;5036528;28;20040;-81
2023/03/28 01:01:03;;;;;;;17.23;4.00;;;20.40;57.30;;;;;;5054701;28;20021;-81
2023/03/28 01:03:33;;;;;;;18.15;4.13;;;20.40;57.30;;;;;;5036705;28;20607;-80
2023/03/28 01:06:03;;;;;;;16.95;4.20;;;20.40;57.60;;;;;;5036603;28;20048;-81
2023/03/28 01:08:39;;;;;;;20.15;4.65;;;20.40;57.80;;;;;;5054126;28;20379;-81
2023/03/28 01:11:05;;;;;;;18.20;3.90;;;20.40;57.90;;;;;;5020132;28;20025;-81
2023/03/28 01:13:36;;;;;;;17.80;4.47;;;20.50;58.10;;;;;;5036348;28;20032;-82
2023/03/28 01:16:04;;;;;;;15.00;4.05;;;20.40;58.00;;;;;;5036516;28;20029;-82
2023/03/28 01:18:33;;;;;;;20.55;4.88;;;20.40;58.00;;;;;;5036049;28;20029;-82
2023/03/28 01:21:14;;;;;;;19.98;4.40;;;20.40;58.20;;;;;;5036367;28;20047;-82
2023/03/28 01:23:52;;;;;;;17.83;4.70;;;20.50;58.30;;;;;;5036312;28;20033;-83
2023/03/28 01:26:43;;;;;;;19.10;4.50;;;20.50;58.40;;;;;;5036454;28;20100;-81
2023/03/28 01:29:24;;;;;;;21.42;5.07;;;20.40;58.50;;;;;;5036139;28;20036;-81
2023/03/28 01:32:31;;;;;;;22.80;5.28;;;20.40;58.70;;;;;;5036276;28;20037;-82
2023/03/28 01:35:31;;;;;;;19.17;4.97;;;20.40;58.80;;;;;;5019946;28;20043;-82
2023/03/28 01:38:22;;;;;;;18.55;4.50;;;20.40;58.90;;;;;;5035801;28;20390;-82
2023/03/28 01:41:24;;;;;;;15.18;4.15;;;20.40;59.00;;;;;;5036122;28;20036;-82
2023/03/28 01:44:21;;;;;;;18.40;4.53;;;20.40;59.10;;;;;;5053705;28;20029;-83
2023/03/28 01:47:00;;;;;;;16.27;4.20;;;20.40;59.10;;;;;;5031955;28;20102;-82
2023/03/28 01:49:48;;;;;;;21.25;4.90;;;20.40;59.10;;;;;;5019396;28;20041;-82
2023/03/28 01:52:27;;;;;;;18.42;4.28;;;20.40;59.20;;;;;;5019482;28;20064;-82
2023/03/28 01:55:29;;;;;;;21.53;5.10;;;20.40;59.20;;;;;;5019450;28;20483;-82
2023/03/28 01:58:01;;;;;;;21.17;5.65;;;20.40;59.30;;;;;;5011411;28;20292;-82
2023/03/28 02:00:49;;;;;;;22.35;5.20;;;20.50;59.40;;;;;;5035877;28;20060;-82
2023/03/28 02:03:25;;;;;;;20.15;5.03;;;20.40;59.40;;;;;;5018667;28;20122;-81
2023/03/28 02:05:57;;;;;;;21.73;5.57;;;20.40;59.70;;;;;;5053457;28;20036;-81
2023/03/28 02:08:31;;;;;;;23.90;4.97;;;20.50;59.70;;;;;;5019002;28;20362;-81
2023/03/28 02:11:13;;;;;;;23.42;5.13;;;20.50;59.70;;;;;;5035456;28;20496;-81
2023/03/28 02:14:05;;;;;;;20.65;4.72;;;20.50;59.80;;;;;;5049107;28;20045;-81
2023/03/28 02:16:53;;;;;;;21.17;5.72;;;20.50;59.80;;;;;;5051945;28;20505;-81
2023/03/28 02:19:37;;;;;;;19.67;5.05;;;20.50;60.30;;;;;;5035365;28;20102;-81
2023/03/28 02:22:54;;;;;;;17.50;4.60;;;20.50;59.90;;;;;;4991252;28;20036;-81
2023/03/28 02:25:45;;;;;;;17.15;4.72;;;20.50;60.00;;;;;;4991580;28;20070;-81
2023/03/28 02:28:31;;;;;;;20.38;4.90;;;20.50;60.10;;;;;;5028514;28;20045;-81
2023/03/28 02:31:14;;;;;;;21.00;4.88;;;20.50;60.10;;;;;;5053066;28;20029;-80
2023/03/28 02:33:44;;;;;;;17.33;4.90;;;20.40;60.20;;;;;;5034991;28;20025;-80
2023/03/28 02:36:38;;;;;;;15.60;4.35;;;20.50;60.30;;;;;;5035280;28;20478;-80
2023/03/28 02:39:28;;;;;;;16.13;4.53;;;20.50;60.40;;;;;;5034579;28;20501;-81
2023/03/28 02:42:39;;;;;;;19.13;4.55;;;20.40;60.40;;;;;;5035001;28;20032;-81
2023/03/28 02:45:43;;;;;;;14.60;4.40;;;20.40;60.40;;;;;;5034989;28;20498;-81
2023/03/28 02:48:16;;;;;;;15.52;4.60;;;20.40;60.50;;;;;;4974390;28;20042;-81
2023/03/28 02:50:56;;;;;;;15.00;4.35;;;20.40;60.40;;;;;;5042324;28;20391;-81
2023/03/28 02:53:37;;;;;;;;;;;20.40;60.50;;;;;;5035117;28;20371;-80
2023/03/28 02:56:08;;;;;;;14.52;4.20;;;20.40;60.50;;;;;;5018525;28;19909;-80
2023/03/28 02:59:27;;;;;;;11.55;3.75;;;20.40;60.50;;;;;;5043627;28;20037;-81
2023/03/28 03:01:53;;;;;;;16.23;4.50;;;20.40;60.50;;;;;;5034647;28;20037;-81
2023/03/28 03:04:19;;;;;;;13.18;4.15;;;20.40;60.50;;;;;;5052201;28;20036;-81
2023/03/28 03:06:44;;;;;;;13.00;4.38;;;20.40;60.70;;;;;;5034576;28;20029;-81
2023/03/28 03:09:12;;;;;;;14.48;4.18;;;20.40;60.60;;;;;;5034048;28;20115;-81
2023/03/28 03:11:38;;;;;;;18.38;4.50;;;20.40;60.60;;;;;;5034389;28;20032;-81
2023/03/28 03:14:03;;;;;;;14.25;4.32;;;20.40;60.70;;;;;;5033249;28;20017;-81
2023/03/28 03:16:30;;;;;;;15.05;3.85;;;20.40;60.60;;;;;;5050770;28;20090;-82
2023/03/28 03:18:57;;;;;;;14.27;4.03;;;20.40;60.70;;;;;;5033761;28;20033;-81
2023/03/28 03:21:24;;;;;;;13.25;3.58;;;20.40;60.80;;;;;;5034224;28;20043;-82
2023/03/28 03:23:51;;;;;;;16.00;4.32;;;20.40;60.70;;;;;;5034851;28;20029;-81
2023/03/28 03:26:17;;;;;;;14.55;4.53;;;20.40;60.60;;;;;;5034182;28;20025;-81
2023/03/28 03:29:12;;;;;;;14.52;4.25;;;20.40;60.80;;;;;;5044430;28;20036;-81
2023/03/28 03:31:38;;;;;;;11.93;3.42;;;20.40;60.70;;;;;;5034097;28;20028;-81
2023/03/28 03:34:23;;;;;;;12.45;3.72;;;20.40;60.70;;;;;;5051767;28;20441;-81
2023/03/28 03:36:53;;;;;;;14.52;3.70;;;20.40;60.70;;;;;;5017690;28;20040;-80
2023/03/28 03:39:21;;;;;;;11.32;3.90;;;20.40;60.90;;;;;;5033517;28;20029;-80
2023/03/28 03:41:47;;;;;;;13.65;3.80;;;20.30;60.60;;;;;;5033820;28;20051;-81
2023/03/28 03:44:13;;;;;;;14.75;4.30;;;20.40;60.80;;;;;;5017444;28;20375;-80
2023/03/28 03:46:39;;;;;;;13.32;3.63;;;20.40;60.80;;;;;;5051547;28;20029;-80
2023/03/28 03:49:07;;;;;;;12.52;4.05;;;20.40;60.60;;;;;;5033504;28;20028;-81
2023/03/28 03:51:33;;;;;;;13.38;3.95;;;20.40;60.80;;;;;;5033801;28;20029;-81
2023/03/28 03:53:59;;;;;;;15.55;3.95;;;20.40;60.80;;;;;;5033525;28;20033;-82
2023/03/28 03:56:35;;;;;;;13.63;4.10;;;20.40;60.90;;;;;;5033653;28;20040;-81
2023/03/28 03:59:01;;;;;;;13.40;3.78;;;20.40;61.00;;;;;;5033242;28;20025;-81
2023/03/28 04:01:32;;;;;;;12.07;4.10;;;20.40;61.50;;;;;;5033491;28;20025;-82
2023/03/28 04:04:12;;;;;;;12.93;3.90;;;20.40;61.80;;;;;;5033675;28;20076;-82
2023/03/28 04:06:58;;;;;;;12.20;3.58;;;20.40;62.00;;;;;;5033351;28;20033;-82
2023/03/28 04:09:28;;;;;;;10.02;3.63;;;20.40;62.40;;;;;;5033132;28;20032;-82
2023/03/28 04:12:08;;;;;;;13.50;3.78;;;20.40;62.40;;;;;;5033509;28;20029;-81
2023/03/28 04:14:44;;;;;;;14.57;3.95;;;20.40;62.60;;;;;;5033457;28;20032;-82
2023/03/28 04:17:33;;;;;;;13.45;3.85;;;20.30;62.70;;;;;;5049651;28;20036;-82
2023/03/28 04:20:12;;;;;;;14.13;3.55;;;20.40;62.60;;;;;;5017191;28;20052;-80
2023/03/28 04:23:04;;;;;;;12.55;3.75;;;20.40;62.30;;;;;;5047907;28;20115;-80
2023/03/28 04:25:30;;;;;;;12.48;3.33;;;20.40;62.40;;;;;;5034727;28;20037;-80
2023/03/28 04:28:02;;;;;;;11.48;3.90;;;20.40;62.60;;;;;;5037304;28;20025;-79
2023/03/28 04:30:33;;;;;;;17.00;3.80;;;20.40;62.60;;;;;;5037605;28;20060;-80
2023/03/28 04:33:29;;;;;;;11.57;3.60;;;20.40;62.90;;;;;;5017879;28;20038;-79
2023/03/28 04:36:04;;;;;;;11.50;3.38;;;20.30;62.80;;;;;;5037320;28;20061;-80
2023/03/28 04:38:35;;;;;;;13.98;3.50;;;20.40;62.70;;;;;;5037092;28;20044;-78
2023/03/28 04:41:16;;;;;;;11.82;3.30;;;20.30;62.70;;;;;;5037254;28;20044;-78
2023/03/28 04:44:00;;;;;;;12.40;3.60;;;20.40;62.80;;;;;;5054748;28;20032;-78
2023/03/28 04:46:31;;;;;;;10.48;3.38;;;20.30;62.80;;;;;;5037132;28;20032;-78
2023/03/28 04:48:59;;;;;;;13.50;3.88;;;20.40;62.60;;;;;;5036735;28;20044;-79
2023/03/28 04:51:28;;;;;;;10.60;3.45;;;20.40;62.70;;;;;;5037054;28;20098;-78
2023/03/28 04:53:54;;;;;;;11.70;3.35;;;20.40;62.60;;;;;;5037271;28;20546;-78
2023/03/28 04:56:39;;;;;;;10.10;3.10;;;20.40;62.60;;;;;;5054848;28;20482;-77
2023/03/28 04:59:06;;;;;;;11.43;3.70;;;20.40;62.70;;;;;;5036532;28;20029;-78
2023/03/28 05:01:33;;;;;;;10.45;2.80;;;20.30;62.70;;;;;;5036843;28;20033;-77
2023/03/28 05:04:20;;;;;;;10.52;3.05;;;20.30;62.70;;;;;;5054585;28;20071;-77
2023/03/28 05:06:47;;;;;;;9.65;3.42;;;20.40;62.70;;;;;;5036776;28;20028;-77
2023/03/28 05:09:15;;;;;;;10.38;3.13;;;20.40;62.60;;;;;;5054358;28;20028;-77
2023/03/28 05:11:41;;;;;;;10.48;3.28;;;20.30;62.90;;;;;;5054852;28;20032;-77
2023/03/28 05:14:07;;;;;;;9.57;3.15;;;20.40;62.40;;;;;;5036660;28;20032;-78
2023/03/28 05:16:42;;;;;;;9.68;2.97;;;20.40;62.60;;;;;;5036836;28;20032;-78
2023/03/28 05:19:27;;;;;;;9.43;3.03;;;20.40;62.40;;;;;;5056260;28;20479;-78
2023/03/28 05:22:00;;;;;;;7.25;2.90;;;20.40;62.50;;;;;;5037964;28;20041;-78
2023/03/28 05:24:26;;;;;;;8.60;2.90;;;20.40;62.50;;;;;;5038347;28;20112;-79
2023/03/28 05:26:53;;;;;;;8.80;3.10;;;20.30;62.60;;;;;;5039297;28;20078;-78
2023/03/28 05:29:22;;;;;;;11.90;3.33;;;20.40;62.70;;;;;;5040476;28;20025;-74
2023/03/28 05:31:48;;;;;;;12.63;3.13;;;20.40;62.80;;;;;;5040520;28;20100;-78
2023/03/28 05:34:23;;;;;;;18.42;3.63;;;20.40;62.40;;;;;;5023197;28;20025;-79
2023/03/28 05:36:49;;;;;;;17.02;3.50;;;20.40;61.60;;;;;;5039364;28;20036;-78
2023/03/28 05:39:23;;;;;;;17.77;3.45;;;20.30;60.10;;;;;;5042407;28;20025;-79
2023/03/28 05:41:52;;;;;;;13.68;3.00;;;20.30;60.90;;;;;;5040339;28;20028;-79
2023/03/28 05:44:18;;;;;;;17.13;3.60;;;20.30;61.20;;;;;;5056661;28;20402;-79
2023/03/28 05:47:06;;;;;;;17.42;3.35;;;20.30;61.60;;;;;;5040514;28;20017;-81
2023/03/28 05:49:32;;;;;;;8.35;3.10;;;20.30;61.80;;;;;;5019356;28;20597;-80
2023/03/28 05:51:58;;;;;;;17.05;3.47;;;20.30;61.90;;;;;;5035320;28;20029;-80
2023/03/28 05:54:24;;;;;;;13.90;3.30;;;20.30;61.80;;;;;;5035208;28;20036;-80
2023/03/28 05:56:50;;;;;;;10.20;3.35;;;20.30;62.20;;;;;;5036301;28;20037;-80
2023/03/28 05:59:17;;;;;;;13.07;3.55;;;20.30;61.80;;;;;;5034561;28;20376;-80
2023/03/28 06:01:45;;;;;;;13.25;3.22;;;20.40;61.90;;;;;;5036253;28;20052;-81
2023/03/28 06:04:11;;;;;;;11.45;3.15;;;20.30;61.50;;;;;;5053991;28;20032;-80
2023/03/28 06:06:37;;;;;;;10.98;3.03;;;20.30;61.40;;;;;;5035937;28;20025;-81
2023/03/28 06:09:05;;;;;;;10.18;3.05;;;20.30;61.50;;;;;;5035909;28;20040;-81
2023/03/28 06:11:44;;;;;;;11.70;3.10;;;20.40;61.30;;;;;;5035861;28;20025;-78
2023/03/28 06:14:10;;;;;;;11.70;2.97;;;20.30;61.50;;;;;;5035781;28;20029;-78
2023/03/28 06:16:36;;;;;;;12.23;3.20;;;20.30;61.10;;;;;;5019412;28;20033;-78
2023/03/28 06:19:03;;;;;;;6.80;2.72;;;20.40;61.50;;;;;;5035469;28;20071;-77
2023/03/28 06:21:29;;;;;;;10.10;3.13;;;20.40;61.60;;;;;;5035650;28;20032;-79
2023/03/28 06:24:00;;;;;;;12.45;3.45;;;20.30;61.40;;;;;;5035625;28;20048;-80
2023/03/28 06:26:31;;;;;;;11.13;3.45;;;20.40;61.60;;;;;;5035624;28;20025;-80
2023/03/28 06:28:57;;;;;;;8.05;3.35;;;20.30;61.50;;;;;;5035249;28;20182;-80
2023/03/28 06:31:33;;;;;;;8.73;3.25;;;20.40;61.50;;;;;;5035397;28;20032;-80
2023/03/28 06:34:00;;;;;;;8.13;2.95;;;20.40;61.30;;;;;;5035241;28;20087;-80
2023/03/28 06:36:25;;;;;;;10.68;3.08;;;20.40;61.10;;;;;;5035635;28;20036;-81
2023/03/28 06:38:52;;;;;;;9.65;3.45;;;20.40;61.40;;;;;;5035074;28;20033;-80
2023/03/28 06:41:20;;;;;;;10.25;3.40;;;20.40;61.20;;;;;;5053129;28;20039;-80
2023/03/28 06:43:46;;;;;;;10.65;2.90;;;20.40;61.60;;;;;;5035105;28;20033;-80
2023/03/28 06:46:48;;;;;;;9.15;3.28;;;20.40;61.90;;;;;;5035175;28;20031;-81
2023/03/28 06:49:14;;;;;;;9.95;3.40;;;20.40;61.80;;;;;;5034795;28;20032;-80
2023/03/28 06:52:15;;;;;;;8.25;2.95;;;20.40;62.10;;;;;;5035192;28;20032;-80
2023/03/28 06:54:45;;;;;;;8.27;3.28;;;20.40;62.00;;;;;;5035000;28;20119;-80
2023/03/28 06:57:11;;;;;;;9.02;3.05;;;20.40;61.70;;;;;;5034603;28;20056;-80
2023/03/28 06:59:38;;;;;;;8.32;3.45;;;20.40;61.90;;;;;;5034922;28;20300;-80
2023/03/28 07:02:06;;;;;;;8.77;3.38;;;20.30;60.90;;;;;;5018599;28;20037;-80
2023/03/28 07:04:34;;;;;;;8.40;3.35;;;20.40;61.80;;;;;;5035049;28;20548;-80
2023/03/28 07:07:00;;;;;;;12.00;3.50;;;20.30;61.80;;;;;;5034777;28;20032;-80
2023/03/28 07:09:26;;;;;;;10.05;3.55;;;20.40;61.90;;;;;;5018046;28;20033;-80
2023/03/28 07:12:02;;;;;;;9.13;3.53;;;20.40;61.60;;;;;;5034538;28;20028;-80
2023/03/28 07:14:28;;;;;;;9.40;3.38;;;20.40;61.40;;;;;;5034533;28;20033;-80
2023/03/28 07:16:54;;;;;;;10.32;3.63;;;20.40;61.30;;;;;;5034394;28;20463;-80
2023/03/28 07:19:21;;;;;;;9.25;3.30;;;20.40;61.20;;;;;;5034171;28;20414;-80
2023/03/28 07:21:48;;;;;;;7.55;3.58;;;20.40;61.00;;;;;;5018247;28;20025;-80
2023/03/28 07:24:14;;;;;;;8.07;3.40;;;20.40;60.90;;;;;;5034491;28;20035;-80
2023/03/28 07:26:52;;;;;;;11.77;3.47;;;20.40;60.70;;;;;;5030935;28;20412;-82
2023/03/28 07:29:18;;;;;;;9.60;3.65;;;20.50;61.10;;;;;;5018998;28;20052;-76
2023/03/28 07:31:44;;;;;;;12.07;3.50;;;20.50;61.60;;;;;;5048372;28;20032;-78
2023/03/28 07:34:09;;;;;;;11.32;3.50;;;20.50;61.90;;;;;;5031301;28;20036;-77
2023/03/28 07:36:37;;;;;;;12.13;3.22;;;20.50;61.80;;;;;;5030764;28;20028;-77
2023/03/28 07:39:10;;;;;;;12.48;3.75;;;20.60;61.60;;;;;;5030846;28;20040;-78
2023/03/28 07:41:37;;;;;;;7.65;2.88;;;20.60;61.30;;;;;;5031280;28;20090;-75
2023/03/28 07:44:03;;;;;;;6.82;2.50;;;20.40;57.60;;;;;;5015181;28;20029;-74
2023/03/28 07:46:31;;;;;;;9.32;2.55;;;19.90;46.40;;;;;;5048024;28;20031;-74
2023/03/28 07:48:59;;;;;;;6.72;2.03;;;19.50;42.30;;;;;;5030880;28;20325;-74
2023/03/28 07:51:25;;;;;;;5.47;1.90;;;19.00;41.00;;;;;;5030928;28;20090;-76
2023/03/28 07:53:51;;;;;;;7.18;2.20;;;19.00;41.80;;;;;;5031099;28;20033;-77
2023/03/28 07:56:17;;;;;;;6.38;2.45;;;19.20;43.80;;;;;;5031363;28;20072;-78
2023/03/28 07:58:56;;;;;;;7.00;2.25;;;19.50;46.40;;;;;;5030523;28;20498;-77
2023/03/28 08:01:23;;;;;;;11.68;3.58;;;19.70;49.30;;;;;;5031012;28;20036;-78
2023/03/28 08:03:54;;;;;;;10.13;3.90;;;20.00;50.90;;;;;;5029846;23;20103;-75
2023/03/28 08:06:24;;;;;;;13.70;3.38;;;20.10;53.20;;;;;;4985500;28;20042;-75
2023/03/28 08:08:50;;;;;;;9.55;3.35;;;20.30;53.40;;;;;;4968698;28;20030;-75
2023/03/28 08:11:27;;;;;;;15.50;4.05;;;20.40;54.70;;;;;;4969518;28;20034;-75
2023/03/28 08:13:53;;;;;;;10.23;3.05;;;20.50;55.70;;;;;;4962606;28;20393;-76
2023/03/28 08:16:22;;;;;;;6.05;2.60;;;20.60;56.00;;;;;;4966381;28;20035;-75
2023/03/28 08:18:48;;;;;;;12.63;3.25;;;20.60;53.70;;;;;;4949894;28;20041;-75
2023/03/28 08:21:14;;;;;;;6.97;2.58;;;20.60;54.40;;;;;;4966401;28;20026;-77
2023/03/28 08:23:40;;;;;;;8.27;2.53;;;20.60;54.20;;;;;;4949672;28;20076;-75
2023/03/28 08:26:21;;;;;;;12.35;3.08;;;20.60;54.10;;;;;;4966093;28;20042;-75
2023/03/28 08:28:53;;;;;;;11.98;2.65;;;20.60;54.20;;;;;;4949747;28;20046;-75
2023/03/28 08:31:25;;;;;;;8.70;2.55;;;20.70;54.60;;;;;;4965971;28;20031;-75
2023/03/28 08:33:54;;;;;;;11.05;2.35;;;20.70;54.20;;;;;;4949662;28;20054;-76
2023/03/28 08:36:26;;;;;;;7.05;2.80;;;20.70;54.20;;;;;;4966100;28;20088;-76
2023/03/28 08:38:59;;;;;;;5.63;2.40;;;20.70;54.50;;;;;;4949750;28;20062;-74
2023/03/28 08:41:53;;;;;;;9.70;2.70;;;20.70;54.80;;;;;;4949863;28;20039;-77
2023/03/28 08:44:54;;;;;;;13.82;2.92;;;20.70;55.20;;;;;;4965564;28;20089;-73
2023/03/28 08:47:35;;;;;;;15.38;3.78;;;20.70;55.60;;;;;;4918049;28;20035;-73
2023/03/28 08:50:11;;;;;;;17.88;3.55;;;20.70;55.70;;;;;;4965944;28;20031;-76
2023/03/28 08:52:38;;;;;;;20.42;2.85;;;20.70;56.10;;;;;;4965916;28;20031;-75
2023/03/28 08:55:26;;;;;;;15.07;3.88;;;20.60;53.70;;;;;;4965305;28;20035;-77
2023/03/28 08:57:54;;;;;;;15.02;3.05;;;20.50;53.60;;;;;;4949518;28;20031;-75
2023/03/28 09:00:35;;;;;;;15.38;3.13;;;20.50;55.30;;;;;;4949583;28;20027;-76
2023/03/28 09:03:08;;;;;;;10.98;2.90;;;20.60;55.10;;;;;;4967160;28;20038;-77
2023/03/28 09:06:00;;;;;;;11.60;2.33;;;20.60;55.00;;;;;;4949125;28;20046;-81
2023/03/28 09:08:57;;;;;;;6.00;1.70;;;20.40;50.90;;;;;;4949584;28;20093;-81
2023/03/28 09:11:34;;;;;;;8.05;1.90;;;20.00;43.20;;;;;;4950337;28;20034;-79
2023/03/28 09:14:22;;;;;;;5.18;1.98;;;19.90;42.10;;;;;;4952447;28;20209;-73
2023/03/28 09:16:52;;;;;;;17.97;3.23;;;19.80;40.40;;;;;;4952863;28;20057;-76
2023/03/28 09:19:26;;;;;;;16.45;3.00;;;20.20;40.30;;;;;;4968718;28;20064;-75
2023/03/28 09:21:59;;;;;;;25.40;2.60;;;20.40;42.20;;;;;;4951187;28;20054;-75
2023/03/28 09:24:52;;;;;;;15.32;3.17;;;20.40;43.80;;;;;;4952226;28;20031;-75
2023/03/28 09:27:53;;;;;;;10.90;2.10;;;20.40;45.20;;;;;;4952314;28;20058;-76
2023/03/28 09:30:33;;;;;;;10.50;1.98;;;20.20;41.00;;;;;;4970129;28;20035;-75
2023/03/28 09:33:09;;;;;;;12.68;1.92;;;20.00;42.30;;;;;;4952414;28;20150;-76
2023/03/28 09:35:35;;;;;;;13.63;2.00;;;20.00;43.80;;;;;;4969639;28;20554;-75
2023/03/28 09:38:14;;;;;;;20.00;2.38;;;20.20;44.60;;;;;;4952162;28;20039;-75
2023/03/28 09:40:45;;;;;;;21.38;2.97;;;20.20;48.80;;;;;;4952777;28;20101;-75
2023/03/28 09:43:32;;;;;;;8.38;1.95;;;20.30;50.30;;;;;;4969526;28;20058;-75
2023/03/28 09:46:29;;;;;;;9.93;2.03;;;20.30;50.10;;;;;;4952018;28;20030;-76
2023/03/28 09:48:58;;;;;;;5.95;1.85;;;20.30;52.10;;;;;;4969335;28;20117;-73
2023/03/28 09:51:29;;;;;;;9.20;2.20;;;20.30;54.20;;;;;;4936482;28;20046;-80
2023/03/28 09:53:55;;;;;;;15.55;2.63;;;20.40;53.50;;;;;;4952011;28;20524;-74
2023/03/28 09:56:43;;;;;;;7.22;2.15;;;20.40;53.80;;;;;;4951967;28;20039;-75
2023/03/28 09:59:29;;;;;;;19.70;2.13;;;20.40;58.80;;;;;;4951916;28;20513;-75
2023/03/28 10:02:02;;;;;;;7.28;2.03;;;20.40;55.90;;;;;;4952280;28;20027;-74
2023/03/28 10:04:28;;;;;;;10.63;2.17;;;20.50;55.70;;;;;;4969501;28;20031;-75
2023/03/28 10:07:10;;;;;;;10.43;2.28;;;20.50;58.00;;;;;;4921918;28;20045;-75
2023/03/28 10:09:53;;;;;;;10.07;2.30;;;20.50;57.00;;;;;;4951833;28;20048;-75
2023/03/28 10:12:24;;;;;;;8.10;2.45;;;20.50;56.00;;;;;;4959759;28;20490;-75
2023/03/28 10:14:51;;;;;;;8.55;2.03;;;20.50;56.90;;;;;;4961613;28;20030;-75
2023/03/28 10:17:36;;;;;;;9.60;2.25;;;20.40;55.80;;;;;;4964026;28;20093;-76
2023/03/28 10:20:09;;;;;;;14.90;2.58;;;20.50;56.00;;;;;;4960568;28;20035;-76
2023/03/28 10:22:38;;;;;;;9.32;2.40;;;20.50;55.80;;;;;;4917009;28;20031;-76
2023/03/28 10:25:12;;;;;;;6.18;1.90;;;20.40;55.80;;;;;;4932276;28;20079;-76
2023/03/28 10:27:39;;;;;;;6.72;2.35;;;20.50;56.10;;;;;;4931998;28;20122;-76
2023/03/28 10:30:23;;;;;;;15.35;2.45;;;20.50;56.10;;;;;;4934645;28;20053;-76
2023/03/28 10:33:15;;;;;;;7.13;2.28;;;20.50;56.30;;;;;;4949745;28;20045;-76
2023/03/28 10:36:11;;;;;;;15.30;2.50;;;20.60;56.30;;;;;;4933799;28;20134;-76
2023/03/28 10:38:46;;;;;;;9.50;2.10;;;20.60;56.30;;;;;;4934280;28;20480;-76
2023/03/28 10:41:36;;;;;;;9.90;2.00;;;20.60;56.30;;;;;;4962833;28;20043;-76
2023/03/28 10:44:17;;;;;;;11.43;2.50;;;20.60;57.00;;;;;;4965873;28;20041;-76
2023/03/28 10:46:51;;;;;;;9.75;2.40;;;20.60;56.20;;;;;;4956334;28;20027;-76
2023/03/28 10:49:22;;;;;;;7.35;2.22;;;20.60;56.30;;;;;;4959125;28;20031;-75
2023/03/28 10:51:57;;;;;;;10.48;2.35;;;20.50;56.00;;;;;;4931692;28;20069;-77
2023/03/28 10:55:01;;;;;;;16.20;2.22;;;20.40;53.90;;;;;;4939824;28;20845;-75
2023/03/28 10:57:59;;;;;;;7.65;2.50;;;20.40;53.40;;;;;;4963796;28;20035;-77
2023/03/28 11:00:27;;;;;;;8.52;2.15;;;20.40;54.20;;;;;;4964351;28;20092;-75
2023/03/28 11:03:22;;;;;;;10.18;2.20;;;20.50;54.50;;;;;;4964493;28;20113;-76
2023/03/28 11:06:20;;;;;;;11.85;2.40;;;20.50;54.60;;;;;;4964577;28;20042;-76
2023/03/28 11:08:49;;;;;;;5.25;2.20;;;20.50;54.30;;;;;;4930822;28;20504;-75
2023/03/28 11:11:36;;;;;;;7.80;2.10;;;20.50;54.80;;;;;;4948378;29;20063;-76
2023/03/28 11:14:36;;;;;;;15.07;2.50;;;20.50;54.70;;;;;;4947760;28;20401;-76
2023/03/28 11:17:12;;;;;;;8.48;2.15;;;20.60;54.90;;;;;;4947666;29;20071;-76
2023/03/28 11:20:09;;;;;;;6.55;2.00;;;20.50;54.70;;;;;;4948690;29;20042;-75
2023/03/28 11:23:16;;;;;;;11.10;2.50;;;20.60;55.00;;;;;;4947773;29;20404;-75
2023/03/28 11:26:24;;;;;;;8.90;2.10;;;20.60;55.10;;;;;;4947733;29;20481;-75
2023/03/28 11:29:33;;;;;;;7.03;2.20;;;20.60;55.30;;;;;;4947974;29;20035;-76
2023/03/28 11:32:03;;;;;;;8.85;2.15;;;20.60;55.50;;;;;;4947637;29;20756;-76
2023/03/28 11:34:41;;;;;;;10.27;2.83;;;20.60;56.80;;;;;;4946979;28;20038;-76
2023/03/28 11:37:27;;;;;;;10.57;2.75;;;20.60;58.00;;;;;;4915815;29;20031;-75
2023/03/28 11:40:06;;;;;;;4.88;1.85;;;20.60;58.50;;;;;;4946930;29;20031;-76
2023/03/28 11:43:04;;;;;;;19.73;2.30;;;20.60;58.40;;;;;;4947569;29;20035;-75
2023/03/28 11:45:36;;;;;;;12.75;2.70;;;20.60;59.10;;;;;;4947379;29;20033;-76
2023/03/28 11:48:29;;;;;;;14.90;2.90;;;20.60;59.20;;;;;;4948438;29;20389;-75
2023/03/28 11:51:06;;;;;;;10.07;2.38;;;20.60;59.60;;;;;;4946669;29;20180;-76
2023/03/28 11:53:51;;;;;;;15.32;2.53;;;20.60;59.80;;;;;;4947290;28;20035;-75
2023/03/28 11:56:57;;;;;;;8.73;2.55;;;20.60;59.40;;;;;;4947275;29;20383;-75
2023/03/28 11:59:41;;;;;;;10.95;2.80;;;20.70;61.30;;;;;;4948098;29;20055;-76
2023/03/28 12:02:38;;;;;;;8.75;2.03;;;20.70;61.30;;;;;;4947191;29;20069;-75
2023/03/28 12:05:13;;;;;;;8.00;2.70;;;20.70;62.10;;;;;;4947034;28;20050;-75
2023/03/28 12:07:47;;;;;;;12.25;2.78;;;20.70;62.50;;;;;;4946861;29;20038;-75
2023/03/28 12:10:36;;;;;;;17.38;3.40;;;20.70;62.40;;;;;;4948079;29;20032;-76
2023/03/28 12:13:41;;;;;;;10.15;2.90;;;20.80;63.80;;;;;;4952573;28;20047;-76
2023/03/28 12:16:19;;;;;;;8.52;2.60;;;20.70;60.90;;;;;;4915576;29;20035;-75
2023/03/28 12:18:49;;;;;;;7.03;2.13;;;20.70;59.70;;;;;;4946662;29;20039;-76
2023/03/28 12:21:44;;;;;;;10.18;2.75;;;20.70;60.20;;;;;;4946374;29;20544;-76
2023/03/28 12:24:13;;;;;;;;;;;20.70;61.10;;;;;;4931593;29;20038;-76
2023/03/28 12:26:59;;;;;;;7.90;2.90;;;20.80;61.60;;;;;;4931012;29;19914;-76
2023/03/28 12:29:40;;;;;;;13.35;3.30;;;20.80;63.20;;;;;;4946864;29;20040;-76
2023/03/28 12:32:20;;;;;;;10.57;3.22;;;20.80;64.50;;;;;;4946265;29;20059;-76
2023/03/28 12:34:55;;;;;;;21.30;3.28;;;20.90;66.40;;;;;;4947054;28;20031;-76
2023/03/28 12:37:33;;;;;;;14.43;3.63;;;20.90;64.50;;;;;;4915441;29;20556;-76
2023/03/28 12:40:23;;;;;;;15.80;3.08;;;20.80;63.90;;;;;;4946879;29;20027;-76
2023/03/28 12:42:53;;;;;;;19.70;3.67;;;20.80;65.40;;;;;;4946207;29;20038;-76
2023/03/28 12:45:22;;;;;;;14.50;3.08;;;20.80;66.50;;;;;;4915237;29;20031;-76
2023/03/28 12:47:54;;;;;;;21.83;3.35;;;20.80;66.70;;;;;;4949110;29;20035;-76
2023/03/28 12:50:31;;;;;;;14.35;2.80;;;20.80;65.30;;;;;;4950551;29;20126;-76
2023/03/28 12:52:59;;;;;;;13.90;3.53;;;20.80;62.90;;;;;;4949487;29;20096;-76
2023/03/28 12:55:34;;;;;;;8.77;2.53;;;20.80;61.70;;;;;;4950177;29;20042;-76
2023/03/28 12:58:32;;;;;;;9.07;2.92;;;20.80;61.60;;;;;;4933584;29;20397;-76
2023/03/28 13:01:07;;;;;;;10.93;2.85;;;20.80;62.00;;;;;;4951067;29;20032;-76
2023/03/28 13:03:58;;;;;;;7.72;2.50;;;20.80;61.60;;;;;;4950497;28;20023;-76
2023/03/28 13:07:21;;;;;;;20.33;3.35;;;20.80;62.10;;;;;;4950089;29;20040;-82
2023/03/28 13:09:50;;;;;;;13.80;2.45;;;20.80;60.40;;;;;;4950480;28;20035;-76
2023/03/28 13:12:50;;;;;;;15.20;2.50;;;20.60;54.10;;;;;;4934127;29;20039;-75
2023/03/28 13:15:16;;;;;;;15.85;4.13;;;20.60;54.90;;;;;;4951368;28;20130;-76
2023/03/28 13:17:47;;;;;;;14.13;3.47;;;20.50;55.40;;;;;;4949020;29;20038;-76
2023/03/28 13:20:16;;;;;;;19.45;2.92;;;20.50;54.80;;;;;;4950139;29;20090;-75
2023/03/28 13:22:56;;;;;;;13.65;2.67;;;20.60;55.70;;;;;;4950216;29;20451;-76
2023/03/28 13:25:27;;;;;;;13.07;2.50;;;20.60;55.70;;;;;;4947859;28;20019;-75
2023/03/28 13:28:12;;;;;;;8.10;2.50;;;20.50;56.00;;;;;;4949468;29;20054;-76